createdAt,value
2022-10-21T00:00:30.277Z,100579.06
2022-10-21T00:03:33.483Z,100585.97
2022-10-21T00:06:36.661Z,100581.88
2022-10-21T00:09:40.016Z,100576.75
2022-10-21T00:12:43.181Z,100581.56
2022-10-21T00:15:58.086Z,100576.16
2022-10-21T00:19:01.292Z,100580.13
2022-10-21T00:22:04.400Z,100576.72
2022-10-21T00:25:08.268Z,100581.38
2022-10-21T00:28:11.327Z,100579.25
2022-10-21T00:31:17.360Z,100573.06
2022-10-21T00:34:20.409Z,100574.28
2022-10-21T00:37:23.486Z,100574.03
2022-10-21T00:40:26.630Z,100571.78
2022-10-21T00:43:30.396Z,100569.94
2022-10-21T00:46:41.397Z,100565.91
2022-10-21T00:49:50.948Z,100569.91
2022-10-21T00:52:56.108Z,100572.78
2022-10-21T00:56:03.025Z,100577.56
2022-10-21T00:59:07.688Z,100569.41
2022-10-21T01:02:12.315Z,100572.31
2022-10-21T01:05:17.332Z,100567.72
2022-10-21T01:08:21.482Z,100568.72
2022-10-21T01:11:27.154Z,100560.25
2022-10-21T01:14:43.615Z,100565.19
2022-10-21T01:17:54.686Z,100564.13
2022-10-21T01:21:16.913Z,100562.03
2022-10-21T01:24:53.191Z,100575.53
2022-10-21T01:28:08.045Z,100572.25
2022-10-21T01:31:19.373Z,100572.91
2022-10-21T01:34:28.330Z,100574.75
2022-10-21T01:37:42.880Z,100579.66
2022-10-21T01:40:56.021Z,100573.63
2022-10-21T01:44:08.330Z,100575.59
2022-10-21T01:47:19.102Z,100574.13
2022-10-21T01:50:26.496Z,100581.50
2022-10-21T01:53:32.736Z,100575.09
2022-10-21T01:56:37.781Z,100584.47
2022-10-21T01:59:43.944Z,100581.50
2022-10-21T02:02:50.948Z,100584.38
2022-10-21T02:05:54.441Z,100582.13
2022-10-21T02:08:57.816Z,100583.84
2022-10-21T02:12:03.268Z,100586.97
2022-10-21T02:15:10.569Z,100584.44
2022-10-21T02:18:22.572Z,100585.34
2022-10-21T02:21:29.495Z,100586.69
2022-10-21T02:24:40.124Z,100585.81
2022-10-21T02:27:43.549Z,100594.88
2022-10-21T02:30:52.815Z,100601.84
2022-10-21T02:34:06.086Z,100599.91
2022-10-21T02:37:22.887Z,100599.91
2022-10-21T02:40:33.238Z,100600.78
2022-10-21T02:43:39.955Z,100605.41
2022-10-21T02:46:44.934Z,100605.84
2022-10-21T02:49:49.608Z,100611.38
2022-10-21T02:52:52.885Z,100611.91
2022-10-21T02:55:56.130Z,100610.28
2022-10-21T02:58:59.363Z,100611.81
2022-10-21T03:02:02.634Z,100619.88
2022-10-21T03:05:09.232Z,100620.59
2022-10-21T03:08:12.402Z,100618.94
2022-10-21T03:11:15.583Z,100625.66
2022-10-21T03:14:18.818Z,100627.06
2022-10-21T03:17:25.125Z,100636.16
2022-10-21T03:20:30.155Z,100627.63
2022-10-21T03:23:33.298Z,100625.81
2022-10-21T03:26:36.538Z,100626.09
2022-10-21T03:29:39.771Z,100619.53
2022-10-21T03:32:42.976Z,100627.38
2022-10-21T03:35:47.526Z,100626.09
2022-10-21T03:38:50.737Z,100623.75
2022-10-21T03:41:54.032Z,100622.50
2022-10-21T03:44:57.175Z,100630.69
2022-10-21T03:48:00.415Z,100627.91
2022-10-21T03:51:05.221Z,100623.75
2022-10-21T03:54:08.417Z,100628.25
2022-10-21T03:57:11.742Z,100633.31
2022-10-21T04:00:15.550Z,100636.06
2022-10-21T04:03:18.776Z,100635.09
2022-10-21T04:06:23.446Z,100634.16
2022-10-21T04:09:26.901Z,100634.56
2022-10-21T04:12:30.184Z,100637.88
2022-10-21T04:15:33.321Z,100629.59
2022-10-21T04:18:36.517Z,100631.28
2022-10-21T04:21:41.051Z,100630.16
2022-10-21T04:24:44.271Z,100634.72
2022-10-21T04:27:47.461Z,100635.41
2022-10-21T04:30:50.936Z,100635.97
2022-10-21T04:33:54.185Z,100634.31
2022-10-21T04:37:01.140Z,100631.81
2022-10-21T04:40:09.140Z,100631.41
2022-10-21T04:43:12.384Z,100635.41
2022-10-21T04:46:17.128Z,100636.78
2022-10-21T04:49:20.561Z,100636.50
2022-10-21T04:52:25.203Z,100639.84
2022-10-21T04:55:28.379Z,100641.63
2022-10-21T04:58:31.568Z,100639.09
2022-10-21T05:01:34.906Z,100639.22
2022-10-21T05:04:38.162Z,100641.00
2022-10-21T05:07:42.725Z,100639.41
2022-10-21T05:10:45.967Z,100643.13
2022-10-21T05:13:49.114Z,100653.47
2022-10-21T05:16:52.317Z,100653.75
2022-10-21T05:19:55.529Z,100648.41
2022-10-21T05:23:00.145Z,100657.25
2022-10-21T05:26:03.345Z,100659.47
2022-10-21T05:29:06.577Z,100665.22
2022-10-21T05:32:09.782Z,100670.06
2022-10-21T05:35:13.255Z,100675.19
2022-10-21T05:38:17.779Z,100683.16
2022-10-21T05:41:21.085Z,100683.41
2022-10-21T05:44:24.411Z,100678.09
2022-10-21T05:47:27.615Z,100683.00
2022-10-21T05:50:30.787Z,100692.25
2022-10-21T05:53:35.608Z,100689.84
2022-10-21T05:56:38.849Z,100691.94
2022-10-21T05:59:42.106Z,100701.22
2022-10-21T06:02:45.488Z,100698.53
2022-10-21T06:05:48.706Z,100706.19
2022-10-21T06:08:53.320Z,100702.09
2022-10-21T06:11:57.892Z,100700.19
2022-10-21T06:15:01.098Z,100706.25
2022-10-21T06:18:04.390Z,100698.19
2022-10-21T06:21:08.268Z,100702.69
2022-10-21T06:24:12.935Z,100716.91
2022-10-21T06:27:16.138Z,100708.56
2022-10-21T06:30:19.389Z,100713.28
2022-10-21T06:33:26.231Z,100716.13
2022-10-21T06:36:30.590Z,100712.00
2022-10-21T06:39:35.303Z,100716.16
2022-10-21T06:42:40.387Z,100718.13
2022-10-21T06:45:43.757Z,100721.50
2022-10-21T06:48:46.975Z,100722.25
2022-10-21T06:51:50.155Z,100727.97
2022-10-21T06:54:54.730Z,100729.91
2022-10-21T06:57:57.983Z,100724.91
2022-10-21T07:01:01.145Z,100721.63
2022-10-21T07:04:06.144Z,100724.16
2022-10-21T07:07:09.363Z,100718.63
2022-10-21T07:10:13.925Z,100726.19
2022-10-21T07:13:17.146Z,100725.50
2022-10-21T07:16:23.870Z,100719.75
2022-10-21T07:19:27.449Z,100719.41
2022-10-21T07:22:31.954Z,100723.44
2022-10-21T07:25:37.700Z,100717.81
2022-10-21T07:28:42.083Z,100714.44
2022-10-21T07:31:45.771Z,100717.00
2022-10-21T07:34:49.033Z,100707.34
2022-10-21T07:37:52.342Z,100712.31
2022-10-21T07:40:58.194Z,100713.06
2022-10-21T07:44:01.837Z,100709.94
2022-10-21T07:47:05.107Z,100708.47
2022-10-21T07:50:09.251Z,100710.78
2022-10-21T07:53:13.250Z,100703.03
2022-10-21T07:56:20.906Z,100709.75
2022-10-21T07:59:24.516Z,100709.69
2022-10-21T08:02:31.426Z,100704.31
2022-10-21T08:05:34.645Z,100710.38
2022-10-21T08:08:38.993Z,100706.50
2022-10-21T08:11:44.043Z,100708.31
2022-10-21T08:14:47.261Z,100699.59
2022-10-21T08:17:50.492Z,100706.25
2022-10-21T08:20:53.987Z,100709.38
2022-10-21T08:23:57.179Z,100695.84
2022-10-21T08:27:01.808Z,100698.72
2022-10-21T08:30:05.629Z,100699.25
2022-10-21T08:33:08.816Z,100697.22
2022-10-21T08:36:15.482Z,100697.09
2022-10-21T08:39:18.705Z,100690.94
2022-10-21T08:42:23.788Z,100691.78
2022-10-21T08:45:34.755Z,100700.34
2022-10-21T08:48:43.917Z,100693.50
2022-10-21T08:51:55.227Z,100684.88
2022-10-21T08:55:01.210Z,100689.75
2022-10-21T08:58:06.108Z,100684.56
2022-10-21T09:01:24.424Z,100685.03
2022-10-21T09:04:42.843Z,100683.28
2022-10-21T09:07:52.520Z,100680.81
2022-10-21T09:11:02.615Z,100676.06
2022-10-21T09:14:50.141Z,100672.13
2022-10-21T09:18:12.395Z,100665.28
2022-10-21T09:21:24.142Z,100662.03
2022-10-21T09:24:35.126Z,100667.94
2022-10-21T09:27:54.994Z,100668.59
2022-10-21T09:31:03.761Z,100666.47
2022-10-21T09:34:19.464Z,100654.81
2022-10-21T09:37:31.750Z,100659.50
2022-10-21T09:40:37.986Z,100655.88
2022-10-21T09:43:41.219Z,100658.75
2022-10-21T09:46:46.355Z,100650.34
2022-10-21T09:50:06.813Z,100649.25
2022-10-21T09:53:16.406Z,100644.56
2022-10-21T09:56:22.447Z,100645.84
2022-10-21T09:59:30.428Z,100626.94
2022-10-21T10:02:39.217Z,100623.16
2022-10-21T10:05:48.134Z,100624.66
2022-10-21T10:08:51.637Z,100616.63
2022-10-21T10:11:57.924Z,100617.53
2022-10-21T10:15:30.827Z,100605.78
2022-10-21T10:18:38.357Z,100605.38
2022-10-21T10:21:43.442Z,100599.63
2022-10-21T10:24:47.086Z,100595.75
2022-10-21T10:27:53.445Z,100596.38
2022-10-21T10:30:58.702Z,100589.72
2022-10-21T10:34:05.403Z,100574.81
2022-10-21T10:37:21.338Z,100575.69
2022-10-21T10:40:32.839Z,100571.44
2022-10-21T10:43:45.320Z,100569.00
2022-10-21T10:46:57.929Z,100563.63
2022-10-21T10:50:01.604Z,100558.09
2022-10-21T10:53:35.026Z,100566.34
2022-10-21T10:56:48.069Z,100549.78
2022-10-21T10:59:59.471Z,100541.31
2022-10-21T11:03:06.476Z,100541.03
2022-10-21T11:06:16.930Z,100536.22
2022-10-21T11:09:25.108Z,100533.91
2022-10-21T11:12:30.336Z,100536.44
2022-10-21T11:16:12.561Z,100526.78
2022-10-21T11:19:28.258Z,100517.28
2022-10-21T11:22:46.829Z,100512.22
2022-10-21T11:26:08.040Z,100511.53
2022-10-21T11:29:26.807Z,100499.16
2022-10-21T11:32:42.488Z,100501.59
2022-10-21T11:36:02.284Z,100485.72
2022-10-21T11:39:59.429Z,100488.72
2022-10-21T11:43:29.582Z,100487.59
2022-10-21T11:46:50.059Z,100485.81
2022-10-21T11:50:02.745Z,100477.19
2022-10-21T11:53:35.436Z,100469.50
2022-10-21T11:56:54.908Z,100469.84
2022-10-21T12:00:37.797Z,100460.44
2022-10-21T12:04:10.869Z,100450.53
2022-10-21T12:08:04.416Z,100456.09
2022-10-21T12:11:39.263Z,100452.97
2022-10-21T12:14:56.673Z,100441.81
2022-10-21T12:18:09.231Z,100435.25
2022-10-21T12:21:40.093Z,100445.50
2022-10-21T12:24:52.491Z,100437.94
2022-10-21T12:28:05.799Z,100437.28
2022-10-21T12:31:24.480Z,100440.22
2022-10-21T12:34:34.113Z,100449.03
2022-10-21T12:38:12.282Z,100443.72
2022-10-21T12:41:36.536Z,100436.47
2022-10-21T12:44:42.301Z,100438.91
2022-10-21T12:47:47.232Z,100434.03
2022-10-21T12:51:00.150Z,100429.78
2022-10-21T12:54:15.610Z,100430.28
2022-10-21T12:57:38.220Z,100420.00
2022-10-21T13:00:58.793Z,100417.13
2022-10-21T13:04:02.826Z,100411.53
2022-10-21T13:07:37.638Z,100408.91
2022-10-21T13:10:41.571Z,100411.97
2022-10-21T13:13:50.353Z,100404.53
2022-10-21T13:16:57.351Z,100404.03
2022-10-21T13:20:49.328Z,100402.19
2022-10-21T13:24:18.401Z,100406.41
2022-10-21T13:27:29.081Z,100400.69
2022-10-21T13:30:42.277Z,100405.19
2022-10-21T13:33:57.614Z,100402.22
2022-10-21T13:37:23.486Z,100407.66
2022-10-21T13:40:38.926Z,100406.03
2022-10-21T13:43:58.325Z,100398.81
2022-10-21T13:47:34.842Z,100403.81
2022-10-21T13:50:51.011Z,100400.81
2022-10-21T13:54:04.352Z,100390.13
2022-10-21T13:57:18.258Z,100390.66
2022-10-21T14:00:32.425Z,100384.81
2022-10-21T14:03:36.606Z,100381.19
2022-10-21T14:06:59.126Z,100371.16
2022-10-21T14:10:08.546Z,100377.22
2022-10-21T14:13:30.326Z,100372.72
2022-10-21T14:16:44.674Z,100370.78
2022-10-21T14:19:54.786Z,100364.84
2022-10-21T14:22:58.741Z,100377.28
2022-10-21T14:26:09.247Z,100368.13
2022-10-21T14:29:27.348Z,100365.72
2022-10-21T14:32:33.157Z,100367.91
2022-10-21T14:35:41.903Z,100360.94
2022-10-21T14:38:54.026Z,100361.66
2022-10-21T14:42:02.828Z,100366.53
2022-10-21T14:45:09.330Z,100355.81
2022-10-21T14:48:26.590Z,100368.31
2022-10-21T14:51:36.642Z,100370.38
2022-10-21T14:54:52.073Z,100366.41
2022-10-21T14:58:08.087Z,100371.44
2022-10-21T15:01:19.379Z,100371.97
2022-10-21T15:04:52.408Z,100371.63
2022-10-21T15:08:32.745Z,100366.34
2022-10-21T15:11:41.976Z,100375.00
2022-10-21T15:14:45.573Z,100384.13
2022-10-21T15:17:50.505Z,100385.03
2022-10-21T15:20:57.349Z,100388.16
2022-10-21T15:24:04.653Z,100389.25
2022-10-21T15:27:08.533Z,100385.28
2022-10-21T15:30:18.906Z,100396.09
2022-10-21T15:33:26.422Z,100400.06
2022-10-21T15:36:29.817Z,100397.78
2022-10-21T15:39:33.154Z,100403.34
2022-10-21T15:42:37.097Z,100408.16
2022-10-21T15:45:42.181Z,100409.63
2022-10-21T15:48:46.794Z,100406.34
2022-10-21T15:51:51.026Z,100408.06
2022-10-21T15:54:55.373Z,100407.78
2022-10-21T15:57:58.651Z,100409.13
2022-10-21T16:01:01.926Z,100408.50
2022-10-21T16:04:06.832Z,100416.97
2022-10-21T16:07:20.907Z,100423.44
2022-10-21T16:10:26.515Z,100437.06
2022-10-21T16:13:29.697Z,100438.25
2022-10-21T16:16:32.991Z,100440.59
2022-10-21T16:19:37.720Z,100441.94
2022-10-21T16:22:41.312Z,100445.06
2022-10-21T16:25:48.294Z,100447.00
2022-10-21T16:28:52.774Z,100447.50
2022-10-21T16:31:56.107Z,100450.69
2022-10-21T16:35:00.702Z,100448.22
2022-10-21T16:38:04.025Z,100448.88
2022-10-21T16:41:11.747Z,100449.84
2022-10-21T16:44:15.416Z,100449.78
2022-10-21T16:47:20.945Z,100458.97
2022-10-21T16:50:31.372Z,100451.25
2022-10-21T16:53:34.665Z,100461.47
2022-10-21T16:56:37.912Z,100465.13
2022-10-21T16:59:41.168Z,100465.78
2022-10-21T17:02:47.005Z,100463.00
2022-10-21T17:05:52.559Z,100465.63
2022-10-21T17:08:58.097Z,100463.00
2022-10-21T17:12:01.520Z,100463.81
2022-10-21T17:15:05.972Z,100469.78
2022-10-21T17:18:11.821Z,100472.91
2022-10-21T17:21:22.562Z,100470.47
2022-10-21T17:24:25.990Z,100487.66
2022-10-21T17:27:29.241Z,100492.59
2022-10-21T17:30:32.644Z,100492.28
2022-10-21T17:33:35.885Z,100493.56
2022-10-21T17:36:40.617Z,100497.72
2022-10-21T17:39:44.575Z,100492.22
2022-10-21T17:42:48.192Z,100490.72
2022-10-21T17:45:51.702Z,100501.16
2022-10-21T17:48:56.093Z,100506.13
2022-10-21T17:52:00.699Z,100501.78
2022-10-21T17:55:04.982Z,100504.47
2022-10-21T17:58:08.096Z,100509.16
2022-10-21T18:01:13.378Z,100514.31
2022-10-21T18:04:16.643Z,100508.97
2022-10-21T18:07:21.217Z,100517.72
2022-10-21T18:10:24.490Z,100510.13
2022-10-21T18:13:30.648Z,100518.91
2022-10-21T18:16:34.973Z,100519.25
2022-10-21T18:19:38.204Z,100521.19
2022-10-21T18:22:43.129Z,100522.72
2022-10-21T18:25:46.404Z,100520.06
2022-10-21T18:28:50.620Z,100528.78
2022-10-21T18:31:53.842Z,100524.88
2022-10-21T18:35:00.152Z,100533.31
2022-10-21T18:38:06.490Z,100527.91
2022-10-21T18:41:19.913Z,100525.66
2022-10-21T18:44:23.962Z,100536.66
2022-10-21T18:47:28.178Z,100532.16
2022-10-21T18:50:31.482Z,100537.44
2022-10-21T18:53:42.460Z,100536.16
2022-10-21T18:56:45.704Z,100525.88
2022-10-21T18:59:48.890Z,100533.69
2022-10-21T19:02:52.118Z,100535.72
2022-10-21T19:05:55.381Z,100531.78
2022-10-21T19:09:01.309Z,100535.78
2022-10-21T19:12:04.962Z,100541.50
2022-10-21T19:15:09.044Z,100542.25
2022-10-21T19:18:13.646Z,100544.53
2022-10-21T19:21:18.987Z,100541.25
2022-10-21T19:24:23.570Z,100550.44
2022-10-21T19:27:26.792Z,100547.88
2022-10-21T19:30:32.277Z,100552.97
2022-10-21T19:33:35.521Z,100555.53
2022-10-21T19:36:38.714Z,100562.38
2022-10-21T19:39:43.262Z,100568.69
2022-10-21T19:42:46.447Z,100584.88
2022-10-21T19:45:50.365Z,100573.00
2022-10-21T19:48:53.644Z,100577.34
2022-10-21T19:51:56.863Z,100576.50
2022-10-21T19:55:01.531Z,100589.66
2022-10-21T19:58:04.710Z,100581.84
2022-10-21T20:01:10.326Z,100577.97
2022-10-21T20:04:13.542Z,100582.59
2022-10-21T20:07:16.765Z,100579.22
2022-10-21T20:10:21.838Z,100580.03
2022-10-21T20:13:25.113Z,100584.84
2022-10-21T20:16:30.203Z,100588.91
2022-10-21T20:19:33.403Z,100585.75
2022-10-21T20:22:36.656Z,100590.75
2022-10-21T20:25:47.807Z,100585.84
2022-10-21T20:28:51.938Z,100583.59
2022-10-21T20:31:55.187Z,100584.84
2022-10-21T20:34:58.497Z,100585.72
2022-10-21T20:38:01.654Z,100582.25
2022-10-21T20:41:09.654Z,100576.66
2022-10-21T20:44:16.218Z,100567.56
2022-10-21T20:47:19.442Z,100574.56
2022-10-21T20:50:22.851Z,100576.88
2022-10-21T20:53:31.022Z,100574.78
2022-10-21T20:56:38.239Z,100569.69
2022-10-21T20:59:41.468Z,100566.16
2022-10-21T21:02:44.687Z,100565.19
2022-10-21T21:05:47.871Z,100569.31
2022-10-21T21:09:08.615Z,100551.94
2022-10-21T21:12:15.740Z,100556.91
2022-10-21T21:15:18.919Z,100553.19
2022-10-21T21:18:22.129Z,100552.03
2022-10-21T21:21:27.829Z,100545.75
2022-10-21T21:24:30.995Z,100538.69
2022-10-21T21:27:35.660Z,100539.16
2022-10-21T21:30:38.868Z,100542.41
2022-10-21T21:33:45.218Z,100546.81
2022-10-21T21:36:48.545Z,100554.16
2022-10-21T21:39:51.858Z,100550.00
2022-10-21T21:42:56.435Z,100543.63
2022-10-21T21:45:59.655Z,100547.84
2022-10-21T21:49:06.123Z,100546.22
2022-10-21T21:52:09.634Z,100540.25
2022-10-21T21:55:12.913Z,100545.59
2022-10-21T21:58:17.535Z,100548.44
2022-10-21T22:01:22.508Z,100548.13
2022-10-21T22:04:25.738Z,100547.78
2022-10-21T22:07:28.919Z,100554.28
2022-10-21T22:10:32.235Z,100550.63
2022-10-21T22:13:37.399Z,100542.91
2022-10-21T22:16:40.682Z,100541.00
2022-10-21T22:19:43.839Z,100547.31
2022-10-21T22:22:47.142Z,100542.19
2022-10-21T22:25:50.668Z,100540.41
2022-10-21T22:28:55.297Z,100533.78
2022-10-21T22:31:58.555Z,100539.88
2022-10-21T22:35:01.683Z,100542.06
2022-10-21T22:38:04.866Z,100540.41
2022-10-21T22:41:12.202Z,100535.69
2022-10-21T22:44:17.138Z,100544.84
2022-10-21T22:47:23.430Z,100549.38
2022-10-21T22:50:26.666Z,100553.38
2022-10-21T22:53:29.863Z,100547.31
2022-10-21T22:56:33.250Z,100542.78
2022-10-21T22:59:38.119Z,100544.44
2022-10-21T23:02:41.480Z,100556.00
2022-10-21T23:05:45.369Z,100547.59
2022-10-21T23:08:48.522Z,100552.53
2022-10-21T23:11:51.734Z,100548.19
2022-10-21T23:14:56.426Z,100557.81
2022-10-21T23:17:59.631Z,100561.28
2022-10-21T23:21:02.881Z,100563.88
2022-10-21T23:24:07.218Z,100560.44
2022-10-21T23:27:10.438Z,100564.56
2022-10-21T23:30:15.292Z,100563.34
2022-10-21T23:33:18.477Z,100559.63
2022-10-21T23:36:21.616Z,100557.00
2022-10-21T23:39:24.886Z,100551.88
2022-10-21T23:42:28.147Z,100554.94
2022-10-21T23:45:32.707Z,100557.84
2022-10-21T23:48:35.934Z,100552.84
2022-10-21T23:51:39.111Z,100560.31
2022-10-21T23:54:42.417Z,100555.59
2022-10-21T23:57:45.992Z,100556.59
